Terminal Aerodrome Forecast
Issued by NWS

Home | Current Version | Previous Version | Text Only | Print | Product List | Glossary On
Versions: 1 2 3 4 5 6 7 8 9 10 11 12 13 14
000
FTAK31 PAJN 280500
TAFAKT
TAF
PAKT 280531Z 2806/2906 17007KT P6SM VCSH SCT020 BKN035 OVC050
     FM281400 15010KT 6SM -RA BR BKN025 OVC040 WS020/14025KT
     FM281700 14012G20KT 4SM -RA BR SCT007 OVC015 WS020/14030KT
     FM281900 15015G30KT 4SM -RA BR SCT007 OVC015 WS020/14035KT
     FM290000 16020G32KT 4SM -RA BR SCT004 OVC015 WS020/16045KT
      AMD LTD TO CLD VIS AND WIND 2806/2815=

USA.gov is the U.S. government's official web portal to all federal, state and local government web resources and services.